LEAM/LEI METAR and TAF weather

Enter ICAO airport designator
Station Type Date Time Source
LEAM METAR 2019/12/07 17:30 UTC NOAA

LEAM 071730Z 23006KT 200V260 CAVOK 15/12 Q1023


Station Type Date Time Source
LEAM Decoded METAR 2019/12/07 17:30 UTC NOAA

Almeria / Aeropuerto, Spain (LEAM) 36-51N 002-23W 21M
Dec 07, 2019 - 12:30 PM EST / 2019.12.07 1730 UTC
Wind: from the SW (230 degrees) at 7 MPH (6 KT) (direction variable):0
Visibility: greater than 7 mile(s):0
Temperature: 59 F (15 C)
Dew Point: 53 F (12 C)
Relative Humidity: 82%
Pressure (altimeter): 30.21 in. Hg (1023 hPa)
ob: LEAM 071730Z 23006KT 200V260 CAVOK 15/12 Q1023
cycle: 17

Station Type Date Time Source
LEAM TAF 2019/12/07 15:31 UTC NOAA

TAF LEAM 071400Z 0715/0815 27004KT 9999 FEW030 TX18/0715Z TN10/0806Z
BECMG 0809/0811 23014KT

Example: see airport list